sensor_id;sensor_type;location;lat;lon;timestamp;P1;durP1;ratioP1;P2;durP2;ratioP2
11203;SDS011;5659;49.408;11.116;2024-01-10T00:01:31;34.53;;;16.63;;
11203;SDS011;5659;49.408;11.116;2024-01-10T00:03:57;46.47;;;18.13;;
11203;SDS011;5659;49.408;11.116;2024-01-10T00:06:23;33.67;;;17.33;;
11203;SDS011;5659;49.408;11.116;2024-01-10T00:08:50;33.30;;;17.37;;
11203;SDS011;5659;49.408;11.116;2024-01-10T00:11:16;32.03;;;16.60;;
11203;SDS011;5659;49.408;11.116;2024-01-10T00:13:42;32.50;;;15.13;;
11203;SDS011;5659;49.408;11.116;2024-01-10T00:16:07;32.50;;;16.13;;
11203;SDS011;5659;49.408;11.116;2024-01-10T00:18:34;29.27;;;16.63;;
11203;SDS011;5659;49.408;11.116;2024-01-10T00:21:00;32.97;;;15.67;;
11203;SDS011;5659;49.408;11.116;2024-01-10T00:23:26;31.27;;;16.00;;
11203;SDS011;5659;49.408;11.116;2024-01-10T00:25:52;28.83;;;14.33;;
11203;SDS011;5659;49.408;11.116;2024-01-10T00:28:18;27.33;;;14.00;;
11203;SDS011;5659;49.408;11.116;2024-01-10T00:30:44;27.60;;;14.13;;
11203;SDS011;5659;49.408;11.116;2024-01-10T00:33:12;29.37;;;13.50;;
11203;SDS011;5659;49.408;11.116;2024-01-10T00:35:38;28.60;;;13.30;;
11203;SDS011;5659;49.408;11.116;2024-01-10T00:38:04;25.57;;;12.73;;
11203;SDS011;5659;49.408;11.116;2024-01-10T00:40:30;26.93;;;14.27;;
11203;SDS011;5659;49.408;11.116;2024-01-10T00:42:56;24.73;;;13.17;;
11203;SDS011;5659;49.408;11.116;2024-01-10T00:45:22;27.50;;;13.60;;
11203;SDS011;5659;49.408;11.116;2024-01-10T00:47:48;25.83;;;13.37;;
11203;SDS011;5659;49.408;11.116;2024-01-10T00:50:14;30.13;;;14.43;;
11203;SDS011;5659;49.408;11.116;2024-01-10T00:52:41;28.73;;;14.93;;
11203;SDS011;5659;49.408;11.116;2024-01-10T00:55:07;25.20;;;13.87;;
11203;SDS011;5659;49.408;11.116;2024-01-10T00:57:33;29.83;;;13.60;;
11203;SDS011;5659;49.408;11.116;2024-01-10T00:59:59;27.57;;;14.30;;
11203;SDS011;5659;49.408;11.116;2024-01-10T01:02:25;24.97;;;12.90;;
11203;SDS011;5659;49.408;11.116;2024-01-10T01:04:51;28.63;;;13.73;;
11203;SDS011;5659;49.408;11.116;2024-01-10T01:07:17;29.63;;;13.70;;
11203;SDS011;5659;49.408;11.116;2024-01-10T01:09:43;26.87;;;13.27;;
11203;SDS011;5659;49.408;11.116;2024-01-10T01:12:09;27.53;;;14.27;;
11203;SDS011;5659;49.408;11.116;2024-01-10T01:14:35;26.67;;;13.47;;
11203;SDS011;5659;49.408;11.116;2024-01-10T01:17:02;29.93;;;14.50;;
11203;SDS011;5659;49.408;11.116;2024-01-10T01:19:28;28.20;;;13.50;;
11203;SDS011;5659;49.408;11.116;2024-01-10T01:21:54;28.20;;;13.13;;
11203;SDS011;5659;49.408;11.116;2024-01-10T01:24:20;26.77;;;12.97;;
11203;SDS011;5659;49.408;11.116;2024-01-10T01:26:45;28.03;;;13.23;;
11203;SDS011;5659;49.408;11.116;2024-01-10T01:29:11;31.90;;;13.70;;
11203;SDS011;5659;49.408;11.116;2024-01-10T01:31:37;23.13;;;12.83;;
11203;SDS011;5659;49.408;11.116;2024-01-10T01:34:03;22.37;;;12.53;;
11203;SDS011;5659;49.408;11.116;2024-01-10T01:36:29;22.73;;;11.90;;
11203;SDS011;5659;49.408;11.116;2024-01-10T01:38:55;25.87;;;12.67;;
11203;SDS011;5659;49.408;11.116;2024-01-10T01:41:21;25.60;;;12.53;;
11203;SDS011;5659;49.408;11.116;2024-01-10T01:43:47;25.90;;;13.00;;
11203;SDS011;5659;49.408;11.116;2024-01-10T01:46:13;25.30;;;12.87;;
11203;SDS011;5659;49.408;11.116;2024-01-10T01:48:39;26.03;;;12.37;;
11203;SDS011;5659;49.408;11.116;2024-01-10T01:51:07;25.00;;;12.43;;
11203;SDS011;5659;49.408;11.116;2024-01-10T01:53:36;24.97;;;13.20;;
11203;SDS011;5659;49.408;11.116;2024-01-10T01:56:04;27.07;;;13.57;;
11203;SDS011;5659;49.408;11.116;2024-01-10T01:58:31;25.07;;;12.93;;
11203;SDS011;5659;49.408;11.116;2024-01-10T02:00:57;23.97;;;12.47;;
11203;SDS011;5659;49.408;11.116;2024-01-10T02:03:24;25.23;;;12.37;;
11203;SDS011;5659;49.408;11.116;2024-01-10T02:05:50;26.93;;;12.83;;
11203;SDS011;5659;49.408;11.116;2024-01-10T02:08:16;22.47;;;12.63;;
11203;SDS011;5659;49.408;11.116;2024-01-10T02:10:42;22.83;;;13.03;;
11203;SDS011;5659;49.408;11.116;2024-01-10T02:13:08;25.23;;;12.40;;
11203;SDS011;5659;49.408;11.116;2024-01-10T02:15:36;27.67;;;12.67;;
11203;SDS011;5659;49.408;11.116;2024-01-10T02:18:02;27.63;;;13.53;;
11203;SDS011;5659;49.408;11.116;2024-01-10T02:20:28;28.30;;;13.97;;
11203;SDS011;5659;49.408;11.116;2024-01-10T02:22:54;31.27;;;13.27;;
11203;SDS011;5659;49.408;11.116;2024-01-10T02:25:20;25.23;;;12.47;;
11203;SDS011;5659;49.408;11.116;2024-01-10T02:30:34;26.90;;;12.43;;
11203;SDS011;5659;49.408;11.116;2024-01-10T02:33:00;28.63;;;13.53;;
11203;SDS011;5659;49.408;11.116;2024-01-10T02:35:26;26.27;;;12.47;;
11203;SDS011;5659;49.408;11.116;2024-01-10T02:37:53;27.13;;;13.33;;
11203;SDS011;5659;49.408;11.116;2024-01-10T02:40:19;25.70;;;13.80;;
11203;SDS011;5659;49.408;11.116;2024-01-10T02:42:45;27.07;;;13.73;;
11203;SDS011;5659;49.408;11.116;2024-01-10T02:45:11;27.43;;;13.67;;
11203;SDS011;5659;49.408;11.116;2024-01-10T02:47:37;27.23;;;14.60;;
11203;SDS011;5659;49.408;11.116;2024-01-10T02:50:04;29.00;;;13.80;;
11203;SDS011;5659;49.408;11.116;2024-01-10T02:52:30;30.23;;;14.50;;
11203;SDS011;5659;49.408;11.116;2024-01-10T02:54:56;33.77;;;16.17;;
11203;SDS011;5659;49.408;11.116;2024-01-10T02:57:22;34.90;;;16.43;;
11203;SDS011;5659;49.408;11.116;2024-01-10T02:59:48;29.47;;;16.23;;
11203;SDS011;5659;49.408;11.116;2024-01-10T03:02:14;35.03;;;15.97;;
11203;SDS011;5659;49.408;11.116;2024-01-10T03:04:40;32.60;;;15.83;;
11203;SDS011;5659;49.408;11.116;2024-01-10T03:07:06;28.80;;;15.07;;
11203;SDS011;5659;49.408;11.116;2024-01-10T03:09:32;30.23;;;13.97;;
11203;SDS011;5659;49.408;11.116;2024-01-10T03:11:58;35.70;;;14.30;;
11203;SDS011;5659;49.408;11.116;2024-01-10T03:14:24;35.27;;;14.50;;
11203;SDS011;5659;49.408;11.116;2024-01-10T03:16:49;28.80;;;14.90;;
11203;SDS011;5659;49.408;11.116;2024-01-10T03:19:15;32.27;;;15.07;;
11203;SDS011;5659;49.408;11.116;2024-01-10T03:21:41;25.80;;;13.97;;
11203;SDS011;5659;49.408;11.116;2024-01-10T03:24:07;25.30;;;13.87;;
11203;SDS011;5659;49.408;11.116;2024-01-10T03:26:33;30.90;;;16.77;;
11203;SDS011;5659;49.408;11.116;2024-01-10T03:28:59;28.83;;;14.97;;
11203;SDS011;5659;49.408;11.116;2024-01-10T03:31:27;34.70;;;15.53;;
11203;SDS011;5659;49.408;11.116;2024-01-10T03:33:53;30.47;;;16.00;;
11203;SDS011;5659;49.408;11.116;2024-01-10T03:36:19;31.03;;;15.73;;
11203;SDS011;5659;49.408;11.116;2024-01-10T03:38:45;26.03;;;13.60;;
11203;SDS011;5659;49.408;11.116;2024-01-10T03:41:15;27.83;;;15.07;;
11203;SDS011;5659;49.408;11.116;2024-01-10T03:43:41;29.33;;;14.70;;
11203;SDS011;5659;49.408;11.116;2024-01-10T03:46:07;31.07;;;14.47;;
11203;SDS011;5659;49.408;11.116;2024-01-10T03:48:34;26.87;;;14.20;;
11203;SDS011;5659;49.408;11.116;2024-01-10T03:51:00;27.47;;;14.10;;
11203;SDS011;5659;49.408;11.116;2024-01-10T03:53:26;28.53;;;16.00;;
11203;SDS011;5659;49.408;11.116;2024-01-10T03:55:52;24.73;;;13.93;;
11203;SDS011;5659;49.408;11.116;2024-01-10T03:58:18;29.00;;;14.87;;
11203;SDS011;5659;49.408;11.116;2024-01-10T04:00:44;32.43;;;14.07;;
11203;SDS011;5659;49.408;11.116;2024-01-10T04:03:10;33.50;;;15.07;;
11203;SDS011;5659;49.408;11.116;2024-01-10T04:05:36;29.33;;;14.13;;
11203;SDS011;5659;49.408;11.116;2024-01-10T04:08:02;32.40;;;14.53;;
11203;SDS011;5659;49.408;11.116;2024-01-10T04:10:29;28.47;;;15.00;;
11203;SDS011;5659;49.408;11.116;2024-01-10T04:12:55;26.77;;;13.77;;
11203;SDS011;5659;49.408;11.116;2024-01-10T04:15:21;35.70;;;14.80;;
11203;SDS011;5659;49.408;11.116;2024-01-10T04:17:47;28.67;;;14.80;;
11203;SDS011;5659;49.408;11.116;2024-01-10T04:20:13;30.40;;;14.63;;
11203;SDS011;5659;49.408;11.116;2024-01-10T04:22:39;28.40;;;14.13;;
11203;SDS011;5659;49.408;11.116;2024-01-10T04:25:06;30.07;;;14.97;;
11203;SDS011;5659;49.408;11.116;2024-01-10T04:27:32;28.40;;;15.23;;
11203;SDS011;5659;49.408;11.116;2024-01-10T04:29:58;24.97;;;13.80;;
11203;SDS011;5659;49.408;11.116;2024-01-10T04:32:24;28.87;;;13.90;;
11203;SDS011;5659;49.408;11.116;2024-01-10T04:34:50;29.03;;;15.23;;
11203;SDS011;5659;49.408;11.116;2024-01-10T04:37:17;35.40;;;15.27;;
11203;SDS011;5659;49.408;11.116;2024-01-10T04:39:44;34.03;;;14.90;;
11203;SDS011;5659;49.408;11.116;2024-01-10T04:42:10;29.67;;;14.50;;
11203;SDS011;5659;49.408;11.116;2024-01-10T04:44:36;31.87;;;15.23;;
11203;SDS011;5659;49.408;11.116;2024-01-10T04:47:03;27.00;;;14.13;;
11203;SDS011;5659;49.408;11.116;2024-01-10T04:49:29;32.93;;;15.63;;
11203;SDS011;5659;49.408;11.116;2024-01-10T04:51:55;29.17;;;14.90;;
11203;SDS011;5659;49.408;11.116;2024-01-10T04:54:21;31.43;;;15.23;;
11203;SDS011;5659;49.408;11.116;2024-01-10T04:56:47;28.17;;;14.20;;
11203;SDS011;5659;49.408;11.116;2024-01-10T04:59:13;28.23;;;14.60;;
11203;SDS011;5659;49.408;11.116;2024-01-10T05:01:39;30.30;;;15.40;;
11203;SDS011;5659;49.408;11.116;2024-01-10T05:04:05;29.10;;;15.20;;
11203;SDS011;5659;49.408;11.116;2024-01-10T05:06:31;32.10;;;15.03;;
11203;SDS011;5659;49.408;11.116;2024-01-10T05:08:57;36.83;;;15.23;;
11203;SDS011;5659;49.408;11.116;2024-01-10T05:11:23;29.10;;;15.10;;
11203;SDS011;5659;49.408;11.116;2024-01-10T05:13:51;26.20;;;14.43;;
11203;SDS011;5659;49.408;11.116;2024-01-10T05:16:17;29.53;;;14.93;;
11203;SDS011;5659;49.408;11.116;2024-01-10T05:18:43;30.23;;;15.20;;
11203;SDS011;5659;49.408;11.116;2024-01-10T05:21:09;32.00;;;15.77;;
11203;SDS011;5659;49.408;11.116;2024-01-10T05:23:35;31.50;;;16.07;;
11203;SDS011;5659;49.408;11.116;2024-01-10T05:26:03;33.60;;;15.17;;
11203;SDS011;5659;49.408;11.116;2024-01-10T05:28:29;28.13;;;15.63;;
11203;SDS011;5659;49.408;11.116;2024-01-10T05:30:55;32.17;;;16.30;;
11203;SDS011;5659;49.408;11.116;2024-01-10T05:33:21;30.33;;;15.33;;
11203;SDS011;5659;49.408;11.116;2024-01-10T05:35:47;31.50;;;16.00;;
11203;SDS011;5659;49.408;11.116;2024-01-10T05:38:13;30.17;;;15.93;;
11203;SDS011;5659;49.408;11.116;2024-01-10T05:40:39;29.57;;;15.83;;
11203;SDS011;5659;49.408;11.116;2024-01-10T05:43:05;33.57;;;16.63;;
11203;SDS011;5659;49.408;11.116;2024-01-10T05:45:32;31.57;;;16.73;;
11203;SDS011;5659;49.408;11.116;2024-01-10T05:47:58;38.30;;;17.03;;
11203;SDS011;5659;49.408;11.116;2024-01-10T05:50:24;30.50;;;15.60;;
11203;SDS011;5659;49.408;11.116;2024-01-10T05:52:50;31.90;;;15.67;;
11203;SDS011;5659;49.408;11.116;2024-01-10T05:55:16;28.80;;;15.73;;
11203;SDS011;5659;49.408;11.116;2024-01-10T05:57:43;27.43;;;15.67;;
11203;SDS011;5659;49.408;11.116;2024-01-10T06:00:09;36.03;;;17.50;;
11203;SDS011;5659;49.408;11.116;2024-01-10T06:02:38;31.40;;;15.70;;
11203;SDS011;5659;49.408;11.116;2024-01-10T06:05:08;34.53;;;16.60;;
11203;SDS011;5659;49.408;11.116;2024-01-10T06:07:37;37.20;;;16.60;;
11203;SDS011;5659;49.408;11.116;2024-01-10T06:10:03;36.60;;;17.07;;
11203;SDS011;5659;49.408;11.116;2024-01-10T06:12:30;35.20;;;17.20;;
11203;SDS011;5659;49.408;11.116;2024-01-10T06:14:56;38.63;;;17.43;;
11203;SDS011;5659;49.408;11.116;2024-01-10T06:17:22;39.30;;;17.27;;
11203;SDS011;5659;49.408;11.116;2024-01-10T06:19:49;37.63;;;17.63;;
11203;SDS011;5659;49.408;11.116;2024-01-10T06:22:15;36.83;;;18.10;;
11203;SDS011;5659;49.408;11.116;2024-01-10T06:24:41;33.37;;;17.77;;
11203;SDS011;5659;49.408;11.116;2024-01-10T06:27:07;38.50;;;17.07;;
11203;SDS011;5659;49.408;11.116;2024-01-10T06:29:34;40.77;;;19.07;;
11203;SDS011;5659;49.408;11.116;2024-01-10T06:32:01;38.27;;;17.73;;
11203;SDS011;5659;49.408;11.116;2024-01-10T06:34:27;36.43;;;18.63;;
11203;SDS011;5659;49.408;11.116;2024-01-10T06:36:53;45.13;;;20.20;;
11203;SDS011;5659;49.408;11.116;2024-01-10T06:39:19;42.67;;;19.50;;
11203;SDS011;5659;49.408;11.116;2024-01-10T06:41:48;42.90;;;19.10;;
11203;SDS011;5659;49.408;11.116;2024-01-10T06:44:15;37.03;;;19.37;;
11203;SDS011;5659;49.408;11.116;2024-01-10T06:46:44;40.93;;;18.87;;
11203;SDS011;5659;49.408;11.116;2024-01-10T06:49:10;42.30;;;19.67;;
11203;SDS011;5659;49.408;11.116;2024-01-10T06:51:36;50.10;;;20.93;;
11203;SDS011;5659;49.408;11.116;2024-01-10T06:54:02;46.57;;;21.63;;
11203;SDS011;5659;49.408;11.116;2024-01-10T06:56:29;49.53;;;21.33;;
11203;SDS011;5659;49.408;11.116;2024-01-10T06:58:55;51.57;;;22.13;;
11203;SDS011;5659;49.408;11.116;2024-01-10T07:01:21;41.80;;;20.23;;
11203;SDS011;5659;49.408;11.116;2024-01-10T07:03:47;57.10;;;21.87;;
11203;SDS011;5659;49.408;11.116;2024-01-10T07:06:14;45.90;;;20.03;;
11203;SDS011;5659;49.408;11.116;2024-01-10T07:08:40;55.37;;;21.30;;
11203;SDS011;5659;49.408;11.116;2024-01-10T07:11:07;54.43;;;22.10;;
11203;SDS011;5659;49.408;11.116;2024-01-10T07:13:33;57.13;;;23.23;;
11203;SDS011;5659;49.408;11.116;2024-01-10T07:15:59;59.97;;;23.27;;
11203;SDS011;5659;49.408;11.116;2024-01-10T07:18:27;55.57;;;21.53;;
11203;SDS011;5659;49.408;11.116;2024-01-10T07:20:53;53.57;;;21.33;;
11203;SDS011;5659;49.408;11.116;2024-01-10T07:23:19;43.97;;;18.77;;
11203;SDS011;5659;49.408;11.116;2024-01-10T07:25:45;38.47;;;19.63;;
11203;SDS011;5659;49.408;11.116;2024-01-10T07:28:11;49.10;;;19.67;;
11203;SDS011;5659;49.408;11.116;2024-01-10T07:30:37;37.57;;;18.73;;
11203;SDS011;5659;49.408;11.116;2024-01-10T07:33:03;47.43;;;18.60;;
11203;SDS011;5659;49.408;11.116;2024-01-10T07:35:29;41.33;;;18.07;;
11203;SDS011;5659;49.408;11.116;2024-01-10T07:37:55;38.40;;;18.20;;
11203;SDS011;5659;49.408;11.116;2024-01-10T07:40:21;42.30;;;18.37;;
11203;SDS011;5659;49.408;11.116;2024-01-10T07:42:48;42.00;;;18.63;;
11203;SDS011;5659;49.408;11.116;2024-01-10T07:45:13;41.83;;;19.50;;
11203;SDS011;5659;49.408;11.116;2024-01-10T07:47:39;35.70;;;17.10;;
11203;SDS011;5659;49.408;11.116;2024-01-10T07:50:06;34.43;;;17.37;;
11203;SDS011;5659;49.408;11.116;2024-01-10T07:52:32;39.43;;;17.13;;
11203;SDS011;5659;49.408;11.116;2024-01-10T07:54:59;37.00;;;17.63;;
11203;SDS011;5659;49.408;11.116;2024-01-10T07:57:25;37.67;;;18.47;;
11203;SDS011;5659;49.408;11.116;2024-01-10T07:59:51;38.87;;;18.13;;
11203;SDS011;5659;49.408;11.116;2024-01-10T08:02:18;41.77;;;19.07;;
11203;SDS011;5659;49.408;11.116;2024-01-10T08:04:44;39.63;;;18.07;;
11203;SDS011;5659;49.408;11.116;2024-01-10T08:07:10;34.27;;;17.07;;
11203;SDS011;5659;49.408;11.116;2024-01-10T08:09:36;36.87;;;17.67;;
11203;SDS011;5659;49.408;11.116;2024-01-10T08:12:03;36.13;;;17.80;;
11203;SDS011;5659;49.408;11.116;2024-01-10T08:14:29;38.67;;;18.73;;
11203;SDS011;5659;49.408;11.116;2024-01-10T08:16:55;34.43;;;17.67;;
11203;SDS011;5659;49.408;11.116;2024-01-10T08:19:23;37.03;;;17.73;;
11203;SDS011;5659;49.408;11.116;2024-01-10T08:21:51;42.03;;;18.03;;
11203;SDS011;5659;49.408;11.116;2024-01-10T08:24:17;39.47;;;17.97;;
11203;SDS011;5659;49.408;11.116;2024-01-10T08:26:43;38.60;;;18.43;;
11203;SDS011;5659;49.408;11.116;2024-01-10T08:29:09;43.83;;;19.17;;
11203;SDS011;5659;49.408;11.116;2024-01-10T08:31:35;38.87;;;19.07;;
11203;SDS011;5659;49.408;11.116;2024-01-10T08:34:01;36.50;;;18.40;;
11203;SDS011;5659;49.408;11.116;2024-01-10T08:36:27;45.90;;;18.33;;
11203;SDS011;5659;49.408;11.116;2024-01-10T08:38:53;36.47;;;18.10;;
11203;SDS011;5659;49.408;11.116;2024-01-10T08:41:19;34.53;;;16.97;;
11203;SDS011;5659;49.408;11.116;2024-01-10T08:43:48;37.30;;;17.13;;
11203;SDS011;5659;49.408;11.116;2024-01-10T08:46:14;37.23;;;17.40;;
11203;SDS011;5659;49.408;11.116;2024-01-10T08:48:40;36.43;;;17.97;;
11203;SDS011;5659;49.408;11.116;2024-01-10T08:51:07;34.63;;;17.17;;
11203;SDS011;5659;49.408;11.116;2024-01-10T08:53:34;31.80;;;16.57;;
11203;SDS011;5659;49.408;11.116;2024-01-10T08:56:00;35.87;;;17.10;;
11203;SDS011;5659;49.408;11.116;2024-01-10T08:58:26;29.87;;;16.27;;
11203;SDS011;5659;49.408;11.116;2024-01-10T09:00:52;29.80;;;15.70;;
11203;SDS011;5659;49.408;11.116;2024-01-10T09:03:18;27.60;;;15.27;;
11203;SDS011;5659;49.408;11.116;2024-01-10T09:05:44;32.37;;;16.30;;
11203;SDS011;5659;49.408;11.116;2024-01-10T09:08:10;35.83;;;16.37;;
11203;SDS011;5659;49.408;11.116;2024-01-10T09:10:36;30.37;;;16.17;;
11203;SDS011;5659;49.408;11.116;2024-01-10T09:13:03;30.43;;;15.13;;
11203;SDS011;5659;49.408;11.116;2024-01-10T09:15:29;30.43;;;14.93;;
11203;SDS011;5659;49.408;11.116;2024-01-10T09:17:55;29.87;;;15.60;;
11203;SDS011;5659;49.408;11.116;2024-01-10T09:20:21;38.33;;;15.77;;
11203;SDS011;5659;49.408;11.116;2024-01-10T09:22:47;31.07;;;14.77;;
11203;SDS011;5659;49.408;11.116;2024-01-10T09:25:14;30.10;;;15.60;;
11203;SDS011;5659;49.408;11.116;2024-01-10T09:27:40;29.83;;;15.53;;
11203;SDS011;5659;49.408;11.116;2024-01-10T09:30:08;30.70;;;14.77;;
11203;SDS011;5659;49.408;11.116;2024-01-10T09:32:35;27.87;;;14.47;;
11203;SDS011;5659;49.408;11.116;2024-01-10T09:35:01;28.47;;;15.07;;
11203;SDS011;5659;49.408;11.116;2024-01-10T09:37:27;25.73;;;14.53;;
11203;SDS011;5659;49.408;11.116;2024-01-10T09:39:53;28.27;;;14.40;;
11203;SDS011;5659;49.408;11.116;2024-01-10T09:42:19;30.33;;;13.93;;
11203;SDS011;5659;49.408;11.116;2024-01-10T09:44:50;31.40;;;14.93;;
11203;SDS011;5659;49.408;11.116;2024-01-10T09:47:16;25.57;;;14.47;;
11203;SDS011;5659;49.408;11.116;2024-01-10T09:49:43;28.87;;;13.63;;
11203;SDS011;5659;49.408;11.116;2024-01-10T09:52:11;29.53;;;15.47;;
11203;SDS011;5659;49.408;11.116;2024-01-10T09:54:42;25.97;;;13.90;;
11203;SDS011;5659;49.408;11.116;2024-01-10T09:57:11;24.63;;;14.00;;
11203;SDS011;5659;49.408;11.116;2024-01-10T09:59:37;22.77;;;13.43;;
11203;SDS011;5659;49.408;11.116;2024-01-10T10:02:03;22.57;;;13.03;;
11203;SDS011;5659;49.408;11.116;2024-01-10T10:04:30;22.77;;;13.63;;
11203;SDS011;5659;49.408;11.116;2024-01-10T10:07:00;24.30;;;13.87;;
11203;SDS011;5659;49.408;11.116;2024-01-10T10:09:26;28.20;;;14.20;;
11203;SDS011;5659;49.408;11.116;2024-01-10T10:11:53;21.03;;;13.20;;
11203;SDS011;5659;49.408;11.116;2024-01-10T10:14:19;22.23;;;13.93;;
11203;SDS011;5659;49.408;11.116;2024-01-10T10:16:45;24.77;;;14.17;;
11203;SDS011;5659;49.408;11.116;2024-01-10T10:19:11;25.80;;;14.67;;
11203;SDS011;5659;49.408;11.116;2024-01-10T10:21:38;22.55;;;13.82;;
11203;SDS011;5659;49.408;11.116;2024-01-10T10:24:04;21.92;;;14.15;;
11203;SDS011;5659;49.408;11.116;2024-01-10T10:26:33;21.40;;;13.77;;
11203;SDS011;5659;49.408;11.116;2024-01-10T10:29:00;21.02;;;13.10;;
11203;SDS011;5659;49.408;11.116;2024-01-10T10:31:27;27.02;;;13.73;;
11203;SDS011;5659;49.408;11.116;2024-01-10T10:33:56;21.40;;;13.13;;
11203;SDS011;5659;49.408;11.116;2024-01-10T10:36:23;21.42;;;13.23;;
11203;SDS011;5659;49.408;11.116;2024-01-10T10:38:49;20.75;;;13.20;;
11203;SDS011;5659;49.408;11.116;2024-01-10T10:41:15;21.00;;;13.35;;
11203;SDS011;5659;49.408;11.116;2024-01-10T10:43:41;24.83;;;13.73;;
11203;SDS011;5659;49.408;11.116;2024-01-10T10:46:11;22.38;;;14.00;;
11203;SDS011;5659;49.408;11.116;2024-01-10T10:48:41;22.27;;;13.73;;
11203;SDS011;5659;49.408;11.116;2024-01-10T10:51:08;19.85;;;12.90;;
11203;SDS011;5659;49.408;11.116;2024-01-10T10:53:35;22.42;;;13.85;;
11203;SDS011;5659;49.408;11.116;2024-01-10T10:56:05;21.35;;;13.57;;
11203;SDS011;5659;49.408;11.116;2024-01-10T10:58:43;21.52;;;13.77;;
11203;SDS011;5659;49.408;11.116;2024-01-10T11:01:10;20.38;;;13.13;;
11203;SDS011;5659;49.408;11.116;2024-01-10T11:03:40;21.40;;;13.55;;
11203;SDS011;5659;49.408;11.116;2024-01-10T11:06:12;21.00;;;13.75;;
11203;SDS011;5659;49.408;11.116;2024-01-10T11:08:45;19.77;;;13.80;;
11203;SDS011;5659;49.408;11.116;2024-01-10T11:21:29;21.67;;;13.75;;
11203;SDS011;5659;49.408;11.116;2024-01-10T11:23:59;21.85;;;14.02;;
11203;SDS011;5659;49.408;11.116;2024-01-10T11:26:26;20.98;;;14.35;;
11203;SDS011;5659;49.408;11.116;2024-01-10T11:28:52;21.55;;;13.77;;
11203;SDS011;5659;49.408;11.116;2024-01-10T11:31:31;20.50;;;13.27;;
11203;SDS011;5659;49.408;11.116;2024-01-10T11:33:57;23.77;;;14.73;;
11203;SDS011;5659;49.408;11.116;2024-01-10T11:36:23;33.90;;;20.60;;
11203;SDS011;5659;49.408;11.116;2024-01-10T11:41:28;25.55;;;13.85;;
11203;SDS011;5659;49.408;11.116;2024-01-10T11:46:43;22.65;;;14.40;;
11203;SDS011;5659;49.408;11.116;2024-01-10T11:49:10;23.75;;;15.05;;
11203;SDS011;5659;49.408;11.116;2024-01-10T11:51:46;22.65;;;13.88;;
11203;SDS011;5659;49.408;11.116;2024-01-10T11:57:00;23.10;;;14.02;;
11203;SDS011;5659;49.408;11.116;2024-01-10T11:59:26;19.25;;;13.70;;
11203;SDS011;5659;49.408;11.116;2024-01-10T12:01:52;21.00;;;13.50;;
11203;SDS011;5659;49.408;11.116;2024-01-10T12:04:19;23.08;;;13.27;;
11203;SDS011;5659;49.408;11.116;2024-01-10T12:06:46;20.48;;;13.90;;
11203;SDS011;5659;49.408;11.116;2024-01-10T12:09:12;20.70;;;13.68;;
11203;SDS011;5659;49.408;11.116;2024-01-10T12:11:39;18.42;;;13.32;;
11203;SDS011;5659;49.408;11.116;2024-01-10T12:14:06;22.95;;;13.98;;
11203;SDS011;5659;49.408;11.116;2024-01-10T12:16:32;22.20;;;13.85;;
11203;SDS011;5659;49.408;11.116;2024-01-10T12:18:58;18.92;;;12.93;;
11203;SDS011;5659;49.408;11.116;2024-01-10T12:21:24;18.33;;;13.40;;
11203;SDS011;5659;49.408;11.116;2024-01-10T12:23:50;19.65;;;12.63;;
11203;SDS011;5659;49.408;11.116;2024-01-10T12:26:16;18.48;;;12.73;;
11203;SDS011;5659;49.408;11.116;2024-01-10T12:28:56;18.98;;;13.23;;
11203;SDS011;5659;49.408;11.116;2024-01-10T12:31:22;19.63;;;12.50;;
11203;SDS011;5659;49.408;11.116;2024-01-10T12:33:48;17.13;;;13.02;;
11203;SDS011;5659;49.408;11.116;2024-01-10T12:36:16;20.75;;;13.00;;
11203;SDS011;5659;49.408;11.116;2024-01-10T12:38:42;24.38;;;13.50;;
11203;SDS011;5659;49.408;11.116;2024-01-10T12:41:09;18.05;;;12.90;;
11203;SDS011;5659;49.408;11.116;2024-01-10T12:43:35;21.60;;;14.38;;
11203;SDS011;5659;49.408;11.116;2024-01-10T12:46:08;23.88;;;13.60;;
11203;SDS011;5659;49.408;11.116;2024-01-10T12:48:40;17.60;;;12.77;;
11203;SDS011;5659;49.408;11.116;2024-01-10T12:51:07;22.60;;;13.48;;
11203;SDS011;5659;49.408;11.116;2024-01-10T12:53:34;19.38;;;12.90;;
11203;SDS011;5659;49.408;11.116;2024-01-10T12:56:01;17.92;;;12.75;;
11203;SDS011;5659;49.408;11.116;2024-01-10T12:58:27;22.23;;;13.35;;
11203;SDS011;5659;49.408;11.116;2024-01-10T13:00:54;18.80;;;12.10;;
11203;SDS011;5659;49.408;11.116;2024-01-10T13:03:20;20.55;;;12.45;;
11203;SDS011;5659;49.408;11.116;2024-01-10T13:05:46;19.05;;;13.00;;
11203;SDS011;5659;49.408;11.116;2024-01-10T13:08:12;17.73;;;12.15;;
11203;SDS011;5659;49.408;11.116;2024-01-10T13:10:38;17.98;;;12.77;;
11203;SDS011;5659;49.408;11.116;2024-01-10T13:13:05;18.98;;;13.63;;
11203;SDS011;5659;49.408;11.116;2024-01-10T13:15:31;18.88;;;13.35;;
11203;SDS011;5659;49.408;11.116;2024-01-10T13:17:57;18.70;;;13.15;;
11203;SDS011;5659;49.408;11.116;2024-01-10T13:20:26;22.13;;;13.00;;
11203;SDS011;5659;49.408;11.116;2024-01-10T13:22:52;18.15;;;12.50;;
11203;SDS011;5659;49.408;11.116;2024-01-10T13:25:19;18.65;;;12.77;;
11203;SDS011;5659;49.408;11.116;2024-01-10T13:27:49;19.75;;;12.88;;
11203;SDS011;5659;49.408;11.116;2024-01-10T13:30:15;20.10;;;12.77;;
11203;SDS011;5659;49.408;11.116;2024-01-10T13:32:42;18.50;;;12.30;;
11203;SDS011;5659;49.408;11.116;2024-01-10T13:35:08;20.10;;;13.65;;
11203;SDS011;5659;49.408;11.116;2024-01-10T13:37:34;19.10;;;12.38;;
11203;SDS011;5659;49.408;11.116;2024-01-10T13:40:00;21.33;;;12.50;;
11203;SDS011;5659;49.408;11.116;2024-01-10T13:42:26;22.00;;;13.13;;
11203;SDS011;5659;49.408;11.116;2024-01-10T13:44:52;19.30;;;13.23;;
11203;SDS011;5659;49.408;11.116;2024-01-10T13:47:18;18.67;;;12.80;;
11203;SDS011;5659;49.408;11.116;2024-01-10T13:49:46;20.65;;;12.48;;
11203;SDS011;5659;49.408;11.116;2024-01-10T13:52:12;19.50;;;13.05;;
11203;SDS011;5659;49.408;11.116;2024-01-10T13:54:38;20.63;;;12.65;;
11203;SDS011;5659;49.408;11.116;2024-01-10T13:57:04;21.33;;;13.60;;
11203;SDS011;5659;49.408;11.116;2024-01-10T13:59:30;18.60;;;12.05;;
11203;SDS011;5659;49.408;11.116;2024-01-10T14:01:57;19.80;;;13.18;;
11203;SDS011;5659;49.408;11.116;2024-01-10T14:04:24;21.92;;;13.82;;
11203;SDS011;5659;49.408;11.116;2024-01-10T14:06:50;19.70;;;13.07;;
11203;SDS011;5659;49.408;11.116;2024-01-10T14:09:16;19.95;;;13.63;;
11203;SDS011;5659;49.408;11.116;2024-01-10T14:11:43;24.10;;;14.83;;
11203;SDS011;5659;49.408;11.116;2024-01-10T14:14:14;27.60;;;13.90;;
11203;SDS011;5659;49.408;11.116;2024-01-10T14:16:40;18.57;;;12.80;;
11203;SDS011;5659;49.408;11.116;2024-01-10T14:19:06;23.87;;;14.00;;
11203;SDS011;5659;49.408;11.116;2024-01-10T14:21:32;25.23;;;15.37;;
11203;SDS011;5659;49.408;11.116;2024-01-10T14:23:58;21.83;;;13.77;;
11203;SDS011;5659;49.408;11.116;2024-01-10T14:26:24;24.73;;;14.73;;
11203;SDS011;5659;49.408;11.116;2024-01-10T14:28:51;31.50;;;15.37;;
11203;SDS011;5659;49.408;11.116;2024-01-10T14:31:21;25.13;;;14.57;;
11203;SDS011;5659;49.408;11.116;2024-01-10T14:33:48;26.13;;;13.63;;
11203;SDS011;5659;49.408;11.116;2024-01-10T14:36:14;37.20;;;19.90;;
11203;SDS011;5659;49.408;11.116;2024-01-10T14:38:40;22.60;;;13.93;;